Time;durP1;ratioP1;P1;durP2;ratioP2;P2;SDS_P1;SDS_P2;PMS_P1;PMS_P2;Temp;Humidity;BMP_temperature;BMP_pressure;BME280_temperature;BME280_humidity;BME280_pressure;Samples;Min_cycle;Max_cycle;Signal;HPM_P1;HPM_P2
2023/04/10 00:01:37;;;;;;;2.00;1.83;;;20.10;83.00;;;;;;6256041;23;20372;-72
2023/04/10 00:04:04;;;;;;;1.30;1.20;;;;;;;;;;6245889;23;20462;-72
2023/04/10 00:06:31;;;;;;;1.70;1.60;;;19.80;82.60;;;;;;6246360;23;20000;-73
2023/04/10 00:08:58;;;;;;;2.20;1.92;;;19.70;51.60;;;;;;6246157;23;20007;-77
2023/04/10 00:11:26;;;;;;;2.83;2.00;;;19.90;51.90;;;;;;6246115;23;19999;-77
2023/04/10 00:13:52;;;;;;;1.80;1.70;;;20.00;81.80;;;;;;6246050;23;20006;-77
2023/04/10 00:16:19;;;;;;;1.75;1.52;;;19.50;82.40;;;;;;6245721;23;20006;-77
2023/04/10 00:18:46;;;;;;;1.77;1.67;;;19.70;74.50;;;;;;6245782;23;20432;-77
2023/04/10 00:21:12;;;;;;;2.13;1.63;;;19.30;69.20;;;;;;6246043;23;20309;-77
2023/04/10 00:23:38;;;;;;;1.30;1.20;;;;;;;;;;6245980;23;19992;-77
2023/04/10 00:26:04;;;;;;;1.65;1.55;;;19.30;82.50;;;;;;6246020;23;20007;-77
2023/04/10 00:28:30;;;;;;;2.17;1.90;;;19.60;82.60;;;;;;6256331;23;20000;-77
2023/04/10 00:30:56;;;;;;;1.55;1.45;;;;;;;;;;6255914;23;20000;-77
2023/04/10 00:33:22;;;;;;;2.05;1.67;;;;;;;;;;6255845;23;20008;-77
2023/04/10 00:35:48;;;;;;;1.40;1.30;;;;;;;;;;6255805;23;20083;-77
2023/04/10 00:38:14;;;;;;;2.60;1.75;;;;;;;;;;6255766;23;20058;-77
2023/04/10 00:40:40;;;;;;;1.88;1.65;;;;;;;;;;6245933;23;20008;-77
2023/04/10 00:43:06;;;;;;;1.80;1.70;;;;;;;;;;6255444;23;20004;-77
2023/04/10 00:45:32;;;;;;;2.10;1.85;;;;;;;;;;6255676;23;20427;-77
2023/04/10 00:47:58;;;;;;;1.90;1.80;;;;;;;;;;6255549;23;20067;-77
2023/04/10 00:50:24;;;;;;;1.85;1.60;;;;;;;;;;6250853;23;20038;-77
2023/04/10 00:52:50;;;;;;;1.60;1.50;;;;;;;;;;6255577;23;20020;-77
2023/04/10 00:55:16;;;;;;;1.65;1.55;;;19.90;83.00;;;;;;6245490;23;20022;-77
2023/04/10 00:57:47;;;;;;;1.55;1.45;;;19.70;49.50;;;;;;6255365;23;19993;-77
2023/04/10 01:00:14;;;;;;;2.22;2.13;;;19.60;83.10;;;;;;6255406;23;20001;-77
2023/04/10 01:02:40;;;;;;;2.00;1.90;;;19.70;83.20;;;;;;6255467;23;19996;-77
2023/04/10 01:05:08;;;;;;;2.20;2.00;;;19.80;82.30;;;;;;6255344;23;20027;-77
2023/04/10 01:07:59;;;;;;;2.33;1.80;;;19.70;49.40;;;;;;6245126;23;20004;-77
2023/04/10 01:10:28;;;;;;;2.50;2.30;;;19.50;83.10;;;;;;6255139;23;19996;-77
2023/04/10 01:13:05;;;;;;;1.90;1.75;;;19.70;49.40;;;;;;6255435;23;19992;-77
2023/04/10 01:15:42;;;;;;;2.15;1.95;;;19.70;52.10;;;;;;6255206;23;20016;-77
2023/04/10 01:18:23;;;;;;;2.33;1.90;;;19.50;64.40;;;;;;6245510;23;19996;-77
2023/04/10 01:20:48;;;;;;;2.45;1.73;;;19.40;83.00;;;;;;6255428;23;19993;-77
2023/04/10 01:23:49;;;;;;;2.10;1.90;;;19.60;49.20;;;;;;6255255;23;20046;-77
2023/04/10 01:26:19;;;;;;;1.83;1.73;;;19.80;83.30;;;;;;6255310;23;20071;-77
2023/04/10 01:28:55;;;;;;;1.92;1.73;;;19.60;83.40;;;;;;6255305;23;19993;-77
2023/04/10 01:31:45;;;;;;;2.08;1.92;;;19.30;83.00;;;;;;6255210;23;20000;-77
2023/04/10 01:34:43;;;;;;;2.50;1.88;;;19.50;83.20;;;;;;6217981;23;20460;-77
2023/04/10 01:37:22;;;;;;;1.90;1.70;;;19.40;83.20;;;;;;6244506;23;20106;-77
2023/04/10 01:39:53;;;;;;;1.95;1.85;;;19.50;52.10;;;;;;6255221;23;20074;-77
2023/04/10 01:42:21;;;;;;;2.13;2.00;;;19.50;52.10;;;;;;6245051;23;20012;-76
2023/04/10 01:44:48;;;;;;;1.75;1.60;;;19.50;51.80;;;;;;6245292;23;19999;-76
2023/04/10 01:47:16;;;;;;;2.20;2.00;;;19.60;80.10;;;;;;6255069;23;20059;-77
2023/04/10 01:49:45;;;;;;;2.42;2.17;;;19.50;52.30;;;;;;6254991;23;19996;-76
2023/04/10 01:52:13;;;;;;;1.88;1.77;;;19.50;83.10;;;;;;6255145;23;20003;-77
2023/04/10 01:54:39;;;;;;;2.13;1.73;;;;;;;;;;6255002;23;20335;-77
2023/04/10 01:57:05;;;;;;;1.75;1.65;;;19.50;83.20;;;;;;6255163;23;20023;-77
2023/04/10 01:59:31;;;;;;;3.58;2.10;;;19.60;83.60;;;;;;6255041;23;19993;-77
2023/04/10 02:01:58;;;;;;;2.03;1.85;;;19.60;72.40;;;;;;6254843;23;20071;-77
2023/04/10 02:04:25;;;;;;;2.15;1.95;;;;;;;;;;6255110;23;19999;-77
2023/04/10 02:07:12;;;;;;;2.35;2.10;;;19.60;57.20;;;;;;6254926;23;20027;-77
2023/04/10 02:09:52;;;;;;;1.70;1.60;;;19.30;82.90;;;;;;6230951;23;20046;-77
2023/04/10 02:12:25;;;;;;;2.08;1.88;;;19.40;52.00;;;;;;6254964;23;20000;-76
2023/04/10 02:14:55;;;;;;;2.80;2.08;;;19.50;83.40;;;;;;6254807;23;20065;-77
2023/04/10 02:17:27;;;;;;;2.75;2.10;;;19.70;83.60;;;;;;6245075;23;20000;-77
2023/04/10 02:19:55;;;;;;;2.05;1.85;;;19.50;52.40;;;;;;6244896;23;20407;-77
2023/04/10 02:22:22;;;;;;;1.70;1.60;;;19.30;83.60;;;;;;6244907;23;19996;-77
2023/04/10 02:24:48;;;;;;;2.17;2.00;;;19.50;78.80;;;;;;6244407;23;20000;-77
2023/04/10 02:27:15;;;;;;;1.98;1.80;;;19.50;83.20;;;;;;6244635;23;19999;-77
2023/04/10 02:29:40;;;;;;;2.13;1.92;;;19.40;83.40;;;;;;6254698;23;20399;-76
2023/04/10 02:32:06;;;;;;;2.25;2.05;;;19.00;83.00;;;;;;6244953;23;20000;-76
2023/04/10 02:34:32;;;;;;;2.10;1.90;;;19.40;68.90;;;;;;6254829;23;20004;-77
2023/04/10 02:36:58;;;;;;;2.03;1.92;;;;;;;;;;6254769;23;19999;-77
2023/04/10 02:39:23;;;;;;;1.77;1.67;;;19.40;83.60;;;;;;6254766;23;20004;-77
2023/04/10 02:41:50;;;;;;;1.85;1.75;;;;;;;;;;6244817;23;20031;-77
2023/04/10 02:44:16;;;;;;;2.67;1.70;;;19.60;83.40;;;;;;6244263;23;20020;-76
2023/04/10 02:46:42;;;;;;;2.63;1.88;;;;;;;;;;6244797;23;20011;-77
2023/04/10 02:49:08;;;;;;;2.55;2.35;;;19.50;83.40;;;;;;6254591;23;20384;-77
2023/04/10 02:51:35;;;;;;;2.00;1.80;;;19.10;61.10;;;;;;6254860;23;20081;-76
2023/04/10 02:54:01;;;;;;;2.20;2.00;;;19.50;83.50;;;;;;6254666;23;20048;-77
2023/04/10 02:56:26;;;;;;;2.42;1.95;;;19.30;83.90;;;;;;6254636;23;20067;-77
2023/04/10 02:58:52;;;;;;;2.33;2.00;;;;;;;;;;6254699;23;20003;-77
2023/04/10 03:01:18;;;;;;;1.75;1.58;;;19.30;83.90;;;;;;6244841;23;20022;-76
2023/04/10 03:03:44;;;;;;;2.03;1.83;;;;;;;;;;6244596;23;20028;-77
2023/04/10 03:06:11;;;;;;;1.80;1.70;;;19.20;83.70;;;;;;6244679;23;20004;-77
2023/04/10 03:08:37;;;;;;;2.05;1.95;;;19.10;63.70;;;;;;6244809;23;20055;-76
2023/04/10 03:11:02;;;;;;;1.92;1.67;;;19.10;74.00;;;;;;6254765;23;20056;-76
2023/04/10 03:13:28;;;;;;;2.03;1.92;;;19.30;81.40;;;;;;6254653;23;20000;-77
2023/04/10 03:15:54;;;;;;;1.95;1.75;;;19.10;83.30;;;;;;6245012;23;20008;-76
2023/04/10 03:18:21;;;;;;;1.92;1.80;;;19.30;83.90;;;;;;6244720;23;19996;-77
2023/04/10 03:20:47;;;;;;;1.85;1.75;;;19.20;84.10;;;;;;6254462;23;20015;-76
2023/04/10 03:23:13;;;;;;;1.83;1.73;;;19.30;83.90;;;;;;6254586;23;19996;-76
2023/04/10 03:25:38;;;;;;;2.30;2.00;;;19.20;83.70;;;;;;6244320;23;20074;-76
2023/04/10 03:28:04;;;;;;;1.88;1.70;;;19.20;84.10;;;;;;6254601;23;19999;-77
2023/04/10 03:30:30;;;;;;;1.73;1.63;;;19.10;60.40;;;;;;6254702;23;20486;-76
2023/04/10 03:32:56;;;;;;;1.98;1.83;;;;;;;;;;6254958;23;20174;-76
2023/04/10 03:35:21;;;;;;;1.67;1.58;;;19.40;84.30;;;;;;6256192;23;20008;-76
2023/04/10 03:37:47;;;;;;;2.30;2.10;;;19.10;84.20;;;;;;6256239;23;20003;-77
2023/04/10 03:40:13;;;;;;;2.08;1.85;;;;;;;;;;6246308;23;20071;-76
2023/04/10 03:42:39;;;;;;;1.60;1.50;;;19.40;84.10;;;;;;6256098;23;20439;-76
2023/04/10 03:45:05;;;;;;;1.50;1.40;;;19.10;83.90;;;;;;6256278;23;20007;-76
2023/04/10 03:47:31;;;;;;;1.70;1.52;;;19.50;84.00;;;;;;6256280;23;20000;-77
2023/04/10 03:49:58;;;;;;;1.70;1.60;;;19.30;84.30;;;;;;6256282;23;20000;-77
2023/04/10 03:52:24;;;;;;;1.67;1.58;;;;;;;;;;6256158;23;19999;-77
2023/04/10 03:54:50;;;;;;;1.77;1.67;;;;;;;;;;6255991;23;20347;-76
2023/04/10 03:57:18;;;;;;;1.95;1.80;;;;;;;;;;6246247;23;20004;-76
2023/04/10 03:59:44;;;;;;;1.75;1.40;;;;;;;;;;6256105;23;20000;-76
2023/04/10 04:03:06;;;;;;;1.83;1.73;;;18.80;49.40;;;;;;6224467;22;20019;-84
2023/04/10 04:05:32;;;;;;;1.75;1.65;;;18.70;67.70;;;;;;6277403;22;20075;-84
2023/04/10 04:07:58;;;;;;;1.98;1.50;;;;;;;;;;6276741;22;19999;-84
2023/04/10 04:10:25;;;;;;;1.50;1.40;;;;;;;;;;6276580;22;20437;-84
2023/04/10 04:12:51;;;;;;;1.90;1.63;;;19.30;84.20;;;;;;6276612;22;20004;-84
2023/04/10 04:15:17;;;;;;;1.13;1.02;;;18.90;84.00;;;;;;6276836;22;20069;-84
2023/04/10 04:17:45;;;;;;;1.73;1.50;;;19.20;84.20;;;;;;6276971;22;19996;-84
2023/04/10 04:20:11;;;;;;;1.67;1.58;;;18.90;84.30;;;;;;6277048;22;20341;-84
2023/04/10 04:22:37;;;;;;;1.45;1.27;;;19.00;84.20;;;;;;6276797;22;19995;-84
2023/04/10 04:25:07;;;;;;;1.75;1.60;;;18.80;71.10;;;;;;6286675;22;20498;-84
2023/04/10 04:27:33;;;;;;;1.67;1.58;;;18.90;83.90;;;;;;6286823;22;20019;-86
2023/04/10 04:29:58;;;;;;;1.30;1.20;;;19.20;67.20;;;;;;6286922;22;20050;-86
2023/04/10 04:32:25;;;;;;;1.65;1.55;;;;;;;;;;6276474;22;20042;-86
2023/04/10 04:34:51;;;;;;;1.83;1.73;;;19.30;84.00;;;;;;6276743;22;20016;-85
2023/04/10 04:37:17;;;;;;;1.73;1.63;;;;;;;;;;6276868;22;20307;-85
2023/04/10 04:39:43;;;;;;;1.55;1.45;;;19.20;76.50;;;;;;6275360;22;20014;-84
2023/04/10 04:42:09;;;;;;;1.80;1.70;;;18.90;84.00;;;;;;6259599;22;20431;-84
2023/04/10 04:44:35;;;;;;;1.48;1.38;;;;;;;;;;6249436;22;19996;-85
2023/04/10 04:47:01;;;;;;;1.25;1.17;;;19.20;83.80;;;;;;6275476;22;20012;-85
2023/04/10 04:49:27;;;;;;;1.73;1.63;;;18.60;83.60;;;;;;6249716;22;20015;-85
2023/04/10 04:51:53;;;;;;;1.60;1.33;;;18.70;83.50;;;;;;6259505;22;20334;-85
2023/04/10 04:54:19;;;;;;;1.48;1.38;;;18.90;83.60;;;;;;6276703;22;20003;-84
2023/04/10 04:56:44;;;;;;;1.35;1.25;;;18.90;75.40;;;;;;6286626;22;20006;-85
2023/04/10 04:59:10;;;;;;;1.33;1.23;;;19.10;75.60;;;;;;6276506;22;20048;-85
2023/04/10 05:01:36;;;;;;;1.42;1.33;;;19.00;72.40;;;;;;6276067;22;20012;-84
2023/04/10 05:04:02;;;;;;;1.52;1.40;;;;;;;;;;6276511;22;20318;-85
2023/04/10 05:06:28;;;;;;;1.40;1.30;;;;;;;;;;6286509;22;20381;-84
2023/04/10 05:08:54;;;;;;;1.52;1.42;;;;;;;;;;6286482;22;20030;-85
2023/04/10 05:11:21;;;;;;;2.28;1.70;;;;;;;;;;6276229;22;20005;-85
2023/04/10 05:13:47;;;;;;;1.40;1.30;;;19.00;84.20;;;;;;6286640;22;20026;-85
2023/04/10 05:16:13;;;;;;;1.50;1.40;;;;;;;;;;6286140;22;20004;-85
2023/04/10 05:18:40;;;;;;;1.70;1.42;;;19.00;84.50;;;;;;6274506;22;20023;-85
2023/04/10 05:21:06;;;;;;;1.65;1.55;;;18.80;59.40;;;;;;6249258;22;20000;-84
2023/04/10 05:23:32;;;;;;;1.60;1.50;;;;;;;;;;6259352;22;20010;-85
2023/04/10 05:25:58;;;;;;;1.27;1.20;;;18.90;67.50;;;;;;6274511;22;20007;-85
2023/04/10 05:28:24;;;;;;;1.20;1.10;;;19.10;65.30;;;;;;6276512;22;19996;-85
2023/04/10 05:30:50;;;;;;;1.73;1.63;;;18.50;63.70;;;;;;6276470;22;20000;-84
2023/04/10 05:33:17;;;;;;;1.73;1.60;;;;;;;;;;6276312;22;20003;-73
2023/04/10 05:35:43;;;;;;;1.85;1.75;;;;;;;;;;6275504;22;20435;-73
2023/04/10 05:38:09;;;;;;;1.45;1.35;;;18.70;84.70;;;;;;6248879;22;20014;-73
2023/04/10 05:40:35;;;;;;;1.98;1.80;;;18.80;84.90;;;;;;6249156;22;20004;-73
2023/04/10 05:43:01;;;;;;;1.95;1.55;;;18.50;84.80;;;;;;6274526;22;20008;-72
2023/04/10 05:45:28;;;;;;;1.40;1.17;;;18.80;85.20;;;;;;6249064;22;20057;-72
2023/04/10 05:47:55;;;;;;;1.35;1.25;;;19.00;82.10;;;;;;6275991;22;20023;-72
2023/04/10 05:50:21;;;;;;;1.60;1.50;;;18.70;85.10;;;;;;6275541;22;20082;-72
2023/04/10 05:52:46;;;;;;;1.60;1.50;;;18.90;84.60;;;;;;6275544;22;20023;-73
2023/04/10 05:55:12;;;;;;;1.50;1.40;;;18.70;84.50;;;;;;6275668;22;20003;-73
2023/04/10 05:57:39;;;;;;;3.08;1.90;;;;;;;;;;6275548;22;20002;-73
2023/04/10 06:00:06;;;;;;;2.65;1.60;;;18.60;83.20;;;;;;6275885;22;20027;-72
2023/04/10 06:02:33;;;;;;;1.70;1.60;;;18.60;78.90;;;;;;6275194;22;20461;-73
2023/04/10 06:04:59;;;;;;;1.65;1.55;;;18.80;85.30;;;;;;6275449;22;19996;-73
2023/04/10 06:07:26;;;;;;;1.55;1.40;;;19.00;85.10;;;;;;6276018;22;20000;-72
2023/04/10 06:09:52;;;;;;;1.38;1.27;;;;;;;;;;6274423;22;19999;-72
2023/04/10 06:12:18;;;;;;;1.50;1.40;;;18.90;60.50;;;;;;6273957;22;20053;-72
2023/04/10 06:14:44;;;;;;;1.40;1.30;;;;;;;;;;6273779;22;20004;-72
2023/04/10 06:17:11;;;;;;;2.67;1.30;;;;;;;;;;6275837;22;20330;-73
2023/04/10 06:19:36;;;;;;;1.70;1.60;;;;;;;;;;6285596;22;19999;-72
2023/04/10 06:22:03;;;;;;;2.22;1.50;;;;;;;;;;6275307;22;20453;-73
2023/04/10 06:24:29;;;;;;;1.50;1.40;;;18.70;84.20;;;;;;6275761;22;20078;-72
2023/04/10 06:26:55;;;;;;;1.48;1.35;;;18.30;84.30;;;;;;6275739;22;20003;-72
2023/04/10 06:29:22;;;;;;;1.63;1.52;;;18.60;84.50;;;;;;6275420;22;20049;-72
2023/04/10 06:31:49;;;;;;;2.00;1.80;;;;;;;;;;6275481;22;19992;-72
2023/04/10 06:34:15;;;;;;;1.60;1.50;;;;;;;;;;6275503;22;20083;-72
2023/04/10 06:36:41;;;;;;;1.80;1.58;;;18.70;84.00;;;;;;6275452;22;20007;-73
2023/04/10 06:39:07;;;;;;;2.10;1.65;;;18.90;84.30;;;;;;6275484;22;20053;-73
2023/04/10 06:41:33;;;;;;;2.75;1.65;;;18.60;84.50;;;;;;6275644;22;20067;-73
2023/04/10 06:43:59;;;;;;;1.60;1.50;;;18.70;84.60;;;;;;6285643;22;20428;-73
2023/04/10 06:46:26;;;;;;;1.90;1.63;;;18.70;83.80;;;;;;6275760;22;19996;-73
2023/04/10 06:48:52;;;;;;;2.25;1.70;;;18.30;63.00;;;;;;6275577;22;19995;-73
2023/04/10 06:51:18;;;;;;;2.00;1.90;;;18.70;84.30;;;;;;6285445;22;20308;-73
2023/04/10 06:53:44;;;;;;;1.58;1.30;;;18.70;84.50;;;;;;6275129;22;20066;-75
2023/04/10 06:56:10;;;;;;;3.80;1.20;;;18.80;85.00;;;;;;6275573;22;20012;-73
2023/04/10 06:58:35;;;;;;;1.40;1.30;;;18.70;84.70;;;;;;6285526;22;20469;-73
2023/04/10 07:01:04;;;;;;;1.60;1.50;;;18.40;84.10;;;;;;6276043;22;20431;-73
2023/04/10 07:03:47;;;;;;;1.50;1.40;;;18.50;84.10;;;;;;6280108;22;20015;-73
2023/04/10 07:06:13;;;;;;;1.60;1.48;;;18.70;85.00;;;;;;6275261;22;20008;-73
2023/04/10 07:08:38;;;;;;;2.90;1.60;;;18.60;77.60;;;;;;6286671;22;19991;-77
2023/04/10 07:11:05;;;;;;;1.60;1.50;;;18.20;74.30;;;;;;6277505;22;20003;-77
2023/04/10 07:13:31;;;;;;;1.75;1.65;;;18.50;84.40;;;;;;6277678;22;19996;-76
2023/04/10 07:15:57;;;;;;;1.60;1.50;;;;;;;;;;6277139;22;20004;-75
2023/04/10 07:18:23;;;;;;;1.83;1.65;;;18.50;84.80;;;;;;6287361;22;20002;-75
2023/04/10 07:20:50;;;;;;;1.77;1.67;;;18.60;84.50;;;;;;6277570;22;20024;-75
2023/04/10 07:23:16;;;;;;;1.75;1.50;;;18.80;85.10;;;;;;6277512;22;20361;-85
2023/04/10 07:25:43;;;;;;;1.52;1.42;;;;;;;;;;6277114;22;20000;-83
2023/04/10 07:28:09;;;;;;;1.50;1.40;;;;;;;;;;6277352;22;20000;-82
2023/04/10 07:30:36;;;;;;;2.80;1.70;;;18.80;84.80;;;;;;6277257;22;20431;-82
2023/04/10 07:33:02;;;;;;;1.60;1.50;;;;;;;;;;6287373;22;20008;-81
2023/04/10 07:35:28;;;;;;;4.38;2.17;;;18.60;84.90;;;;;;6276961;22;20003;-80
2023/04/10 07:37:55;;;;;;;2.35;2.13;;;18.60;71.50;;;;;;6277461;22;19995;-80
2023/04/10 07:40:21;;;;;;;1.90;1.50;;;18.50;83.90;;;;;;6277183;22;20028;-83
2023/04/10 07:42:47;;;;;;;6.35;2.35;;;18.20;69.60;;;;;;6277097;22;19995;-78
2023/04/10 07:45:12;;;;;;;4.93;1.70;;;18.40;55.80;;;;;;6286872;22;19996;-80
2023/04/10 07:47:39;;;;;;;3.03;2.10;;;;;;;;;;6276823;22;20052;-79
2023/04/10 07:50:06;;;;;;;4.60;1.92;;;18.60;52.60;;;;;;6276669;22;20083;-79
2023/04/10 07:52:31;;;;;;;5.03;1.98;;;18.70;85.40;;;;;;6286942;22;19996;-85
2023/04/10 07:55:00;;;;;;;3.38;2.05;;;18.50;84.80;;;;;;6287048;22;20019;-77
2023/04/10 07:57:26;;;;;;;4.63;2.08;;;18.60;85.20;;;;;;6277212;22;19991;-79
2023/04/10 07:59:52;;;;;;;4.68;1.80;;;18.30;84.80;;;;;;6276951;22;20007;-83
2023/04/10 08:02:18;;;;;;;5.32;2.03;;;18.50;85.10;;;;;;6276379;22;20004;-78
2023/04/10 08:04:44;;;;;;;2.35;1.92;;;;;;;;;;6275346;22;20018;-80
2023/04/10 08:07:10;;;;;;;3.90;2.25;;;;;;;;;;6285464;22;20003;-84
2023/04/10 08:09:36;;;;;;;3.17;1.90;;;;;;;;;;6275350;22;20004;-81
2023/04/10 08:12:02;;;;;;;2.65;2.38;;;;;;;;;;6285460;22;20015;-89
2023/04/10 08:14:29;;;;;;;3.50;2.30;;;;;;;;;;6285314;22;20079;-85
2023/04/10 08:16:54;;;;;;;2.03;1.65;;;18.60;63.20;;;;;;6285568;22;20062;-83
2023/04/10 08:19:20;;;;;;;2.22;2.03;;;;;;;;;;6259612;22;19995;-83
2023/04/10 08:21:46;;;;;;;2.08;1.88;;;;;;;;;;6285375;22;20000;-81
2023/04/10 08:24:12;;;;;;;2.67;1.92;;;18.80;65.70;;;;;;6275302;22;20010;-83
2023/04/10 08:26:39;;;;;;;2.17;2.03;;;18.70;79.20;;;;;;6249925;22;20000;-85
2023/04/10 08:29:05;;;;;;;2.88;2.00;;;19.30;54.50;;;;;;6250346;22;20062;-89
2023/04/10 08:31:32;;;;;;;2.20;2.00;;;;;;;;;;6275824;22;20312;-85
2023/04/10 08:33:58;;;;;;;4.20;1.75;;;;;;;;;;6276626;22;20012;-84
2023/04/10 08:36:25;;;;;;;2.47;1.70;;;;;;;;;;6286740;22;20063;-83
2023/04/10 08:38:51;;;;;;;7.30;2.40;;;18.30;85.50;;;;;;6276933;22;19996;-84
2023/04/10 08:41:18;;;;;;;2.65;2.00;;;18.70;85.80;;;;;;6276702;22;19999;-84
2023/04/10 08:43:45;;;;;;;3.95;2.80;;;18.80;52.10;;;;;;6276790;22;19992;-82
2023/04/10 08:46:11;;;;;;;4.85;1.88;;;18.80;65.20;;;;;;6286879;22;20378;-85
2023/04/10 08:48:38;;;;;;;3.17;2.28;;;18.40;84.90;;;;;;6286767;22;20003;-87
2023/04/10 08:51:06;;;;;;;2.55;1.60;;;18.90;85.40;;;;;;6286989;22;19992;-80
2023/04/10 08:53:35;;;;;;;5.18;2.80;;;18.60;85.20;;;;;;6286631;22;20008;-81
2023/04/10 08:56:03;;;;;;;2.53;2.00;;;18.70;82.40;;;;;;6286805;22;20110;-81
2023/04/10 08:58:30;;;;;;;2.90;2.38;;;18.90;85.60;;;;;;6276446;22;19995;-85
2023/04/10 09:00:56;;;;;;;2.58;2.00;;;18.90;85.80;;;;;;6286206;22;20065;-85
2023/04/10 09:03:22;;;;;;;2.15;1.98;;;18.90;86.30;;;;;;6276032;22;20019;-79
2023/04/10 09:05:49;;;;;;;2.10;1.88;;;;;;;;;;6276149;22;19996;-90
2023/04/10 09:08:15;;;;;;;2.10;1.88;;;;;;;;;;6275845;22;19999;-78
2023/04/10 09:10:41;;;;;;;1.90;1.75;;;18.70;86.40;;;;;;6275482;22;20080;-82
2023/04/10 09:13:07;;;;;;;2.50;1.77;;;;;;;;;;6276436;22;19992;-82
2023/04/10 09:15:54;;;;;;;2.13;1.90;;;18.70;54.70;;;;;;6276145;22;20334;-85
2023/04/10 09:18:20;;;;;;;1.92;1.73;;;;;;;;;;6276577;22;20397;-85
2023/04/10 09:20:50;;;;;;;2.40;1.92;;;18.80;65.60;;;;;;6276459;22;20003;-80
2023/04/10 09:23:22;;;;;;;1.97;1.77;;;18.70;85.60;;;;;;6276452;22;19995;-82
2023/04/10 09:25:47;;;;;;;3.25;1.80;;;18.70;85.80;;;;;;6286281;22;20324;-88
2023/04/10 09:28:13;;;;;;;6.15;2.03;;;18.90;86.10;;;;;;6276342;22;20003;-84
2023/04/10 09:30:41;;;;;;;3.17;1.88;;;18.60;73.90;;;;;;6275657;22;19995;-86
2023/04/10 09:33:23;;;;;;;3.40;2.33;;;18.70;85.30;;;;;;6275750;22;20080;-73
2023/04/10 09:35:50;;;;;;;3.25;1.75;;;18.70;85.80;;;;;;6275903;22;20007;-73
2023/04/10 09:38:17;;;;;;;3.42;1.90;;;18.70;86.00;;;;;;6275960;22;20015;-73
2023/04/10 09:40:45;;;;;;;6.60;2.47;;;18.80;54.60;;;;;;6276027;22;20020;-74
2023/04/10 09:43:19;;;;;;;2.03;1.83;;;18.50;85.20;;;;;;6275784;22;19996;-73
2023/04/10 09:45:53;;;;;;;1.65;1.55;;;18.50;82.20;;;;;;6275712;22;19999;-73
2023/04/10 09:48:20;;;;;;;2.35;2.15;;;18.60;66.40;;;;;;6275738;22;20015;-73
2023/04/10 09:50:47;;;;;;;2.03;1.92;;;;;;;;;;6275544;22;20000;-73
2023/04/10 09:53:18;;;;;;;3.85;1.95;;;19.30;55.20;;;;;;6285521;22;20070;-72
2023/04/10 09:55:46;;;;;;;2.35;2.10;;;18.70;55.00;;;;;;6274966;22;20004;-72
2023/04/10 09:58:13;;;;;;;2.42;2.03;;;18.60;86.00;;;;;;6275642;22;20006;-73
2023/04/10 10:00:42;;;;;;;2.25;2.05;;;18.40;79.40;;;;;;6275146;22;20026;-73
2023/04/10 10:03:26;;;;;;;2.38;1.95;;;18.70;86.40;;;;;;6273227;22;20018;-73
2023/04/10 10:05:53;;;;;;;2.63;2.20;;;19.00;61.50;;;;;;6273556;22;20000;-74
2023/04/10 10:08:19;;;;;;;2.67;2.15;;;19.00;79.90;;;;;;6273647;22;20020;-73
2023/04/10 10:10:48;;;;;;;2.10;1.90;;;18.90;86.20;;;;;;6248130;22;20007;-74
2023/04/10 10:13:40;;;;;;;2.05;1.85;;;18.40;85.90;;;;;;6273553;22;20411;-74
2023/04/10 10:16:19;;;;;;;2.20;2.00;;;18.90;57.60;;;;;;6275346;22;20015;-73
2023/04/10 10:19:11;;;;;;;3.05;1.80;;;18.80;50.70;;;;;;6273812;22;19999;-73
2023/04/10 10:21:38;;;;;;;2.25;1.90;;;;;;;;;;6273996;22;20026;-74
2023/04/10 10:24:08;;;;;;;1.83;1.73;;;18.80;55.40;;;;;;6273703;22;20370;-73
2023/04/10 10:26:37;;;;;;;1.98;1.88;;;18.90;86.30;;;;;;6275426;22;20563;-73
2023/04/10 10:29:12;;;;;;;2.40;2.20;;;18.60;56.30;;;;;;6275471;22;20003;-74
2023/04/10 10:31:38;;;;;;;1.80;1.70;;;18.80;85.90;;;;;;6275252;22;20356;-74
2023/04/10 10:34:07;;;;;;;2.45;1.40;;;19.20;66.10;;;;;;6274992;22;20030;-72
2023/04/10 10:36:35;;;;;;;2.03;1.83;;;18.90;85.80;;;;;;6275282;22;20015;-73
2023/04/10 10:39:13;;;;;;;3.50;1.70;;;18.90;80.70;;;;;;6275067;22;20366;-73
2023/04/10 10:42:01;;;;;;;4.57;3.35;;;19.10;50.40;;;;;;6275191;22;20003;-73
2023/04/10 10:44:27;;;;;;;2.20;2.00;;;19.20;86.10;;;;;;6276789;22;20003;-72
2023/04/10 10:47:08;;;;;;;2.22;2.03;;;18.90;85.50;;;;;;6277244;22;20004;-72
2023/04/10 10:49:57;;;;;;;2.00;1.90;;;19.10;50.40;;;;;;6277414;22;20000;-73
2023/04/10 10:52:47;;;;;;;2.03;1.85;;;19.00;85.80;;;;;;6276782;22;20000;-73
2023/04/10 10:55:23;;;;;;;5.43;2.03;;;19.20;85.70;;;;;;6276850;22;20008;-74
2023/04/10 10:57:51;;;;;;;2.90;2.38;;;19.10;54.40;;;;;;6276970;22;19995;-72
2023/04/10 11:00:17;;;;;;;1.90;1.65;;;19.50;85.60;;;;;;6277242;22;19995;-73
2023/04/10 11:02:44;;;;;;;2.88;2.42;;;19.20;67.60;;;;;;6276763;22;20016;-73
2023/04/10 11:05:09;;;;;;;1.90;1.80;;;19.50;85.60;;;;;;6287069;22;19997;-73
2023/04/10 11:07:57;;;;;;;2.40;2.20;;;19.30;85.20;;;;;;6277164;22;20000;-73
2023/04/10 11:10:58;;;;;;;2.10;1.98;;;19.60;64.30;;;;;;6286964;22;20023;-73
2023/04/10 11:13:25;;;;;;;3.65;2.10;;;;;;;;;;6153135;23;19998;-74
2023/04/10 11:15:51;;;;;;;3.25;2.20;;;17.70;53.40;;;;;;6262157;22;20011;-74
2023/04/10 11:18:18;;;;;;;2.20;2.00;;;19.80;75.00;;;;;;6258956;22;20027;-73
2023/04/10 11:21:09;;;;;;;3.10;1.90;;;19.70;58.20;;;;;;6286865;22;20016;-73
2023/04/10 11:23:36;;;;;;;2.20;2.00;;;19.70;85.90;;;;;;6277280;22;20426;-83
2023/04/10 11:26:02;;;;;;;2.70;2.20;;;;;;;;;;6276568;22;20008;-85
2023/04/10 11:28:31;;;;;;;2.38;2.10;;;19.40;73.60;;;;;;6276897;22;20007;-77
2023/04/10 11:31:14;;;;;;;2.10;1.85;;;19.40;86.30;;;;;;6277179;22;20410;-81
2023/04/10 11:33:40;;;;;;;5.55;1.75;;;19.80;68.00;;;;;;6277355;22;19999;-80
2023/04/10 11:36:07;;;;;;;3.08;2.03;;;;;;;;;;6276774;22;20007;-82
2023/04/10 11:38:33;;;;;;;2.08;1.90;;;19.30;86.20;;;;;;6277167;22;20066;-86
2023/04/10 11:41:03;;;;;;;3.20;1.80;;;19.60;86.30;;;;;;6277473;22;20454;-77
2023/04/10 11:43:30;;;;;;;1.90;1.48;;;19.70;82.60;;;;;;6277301;22;20019;-81
2023/04/10 11:46:04;;;;;;;2.20;2.00;;;19.80;87.00;;;;;;6276936;22;20003;-79
2023/04/10 11:48:30;;;;;;;2.22;1.85;;;19.60;87.00;;;;;;6287053;22;19992;-80
2023/04/10 11:50:57;;;;;;;2.45;1.80;;;;;;;;;;6276798;22;20492;-79
2023/04/10 11:53:23;;;;;;;2.47;1.83;;;19.50;79.90;;;;;;6276257;22;20007;-83
2023/04/10 11:55:50;;;;;;;3.53;2.20;;;;;;;;;;6276976;22;20014;-82
2023/04/10 11:58:29;;;;;;;2.30;2.10;;;20.10;51.10;;;;;;6277195;22;20022;-76
2023/04/10 12:00:56;;;;;;;2.20;2.00;;;19.40;84.10;;;;;;6275666;22;20461;-82
2023/04/10 12:03:42;;;;;;;2.95;2.13;;;19.60;52.30;;;;;;6275928;22;20041;-79
2023/04/10 12:06:13;;;;;;;3.15;2.03;;;19.80;52.60;;;;;;6277063;22;19996;-82
2023/04/10 12:08:45;;;;;;;2.97;2.30;;;19.20;86.00;;;;;;6287365;22;20002;-81
2023/04/10 12:11:11;;;;;;;2.38;1.98;;;19.60;77.30;;;;;;6277121;22;19996;-84
2023/04/10 12:13:38;;;;;;;8.40;1.90;;;;;;;;;;6275823;22;20435;-84
2023/04/10 12:16:08;;;;;;;2.05;1.60;;;19.50;55.60;;;;;;6275790;22;20012;-85
2023/04/10 12:18:35;;;;;;;3.20;2.22;;;19.20;59.50;;;;;;6277073;22;20019;-87
2023/04/10 12:21:03;;;;;;;3.03;1.77;;;19.50;55.10;;;;;;6276957;22;20026;-83
2023/04/10 12:23:29;;;;;;;3.72;1.83;;;19.80;74.00;;;;;;6274941;22;20487;-85
2023/04/10 12:26:13;;;;;;;1.90;1.80;;;19.70;87.50;;;;;;6276989;22;20022;-89
2023/04/10 12:28:41;;;;;;;4.82;1.95;;;19.50;56.10;;;;;;6276823;22;20421;-84
2023/04/10 12:31:08;;;;;;;4.70;2.08;;;;;;;;;;6286863;22;20023;-76
2023/04/10 12:33:34;;;;;;;3.20;1.60;;;19.70;67.90;;;;;;6276224;22;19996;-83
2023/04/10 12:36:01;;;;;;;3.80;1.63;;;;;;;;;;6276876;22;20004;-85
2023/04/10 12:38:38;;;;;;;1.83;1.73;;;19.70;87.80;;;;;;6275449;22;20015;-83
2023/04/10 12:41:05;;;;;;;1.92;1.73;;;;;;;;;;6276336;22;20011;-84
2023/04/10 12:43:37;;;;;;;2.42;2.17;;;19.30;87.70;;;;;;6276332;22;20062;-86
2023/04/10 12:46:03;;;;;;;6.13;1.67;;;19.50;56.40;;;;;;6286707;22;20387;-86
2023/04/10 12:48:29;;;;;;;6.05;1.77;;;19.60;87.80;;;;;;6276298;22;20377;-80
2023/04/10 12:50:55;;;;;;;2.30;1.73;;;19.80;88.10;;;;;;6276664;22;20012;-80
2023/04/10 12:53:21;;;;;;;3.42;2.20;;;19.40;88.20;;;;;;6286821;22;20003;-86
2023/04/10 12:55:58;;;;;;;3.25;1.73;;;19.80;63.00;;;;;;6276726;22;20008;-83
2023/04/10 12:58:27;;;;;;;2.08;1.67;;;19.70;81.70;;;;;;6276269;22;20067;-84
2023/04/10 13:00:55;;;;;;;1.50;1.40;;;;;;;;;;6276198;22;20075;-84
2023/04/10 13:03:21;;;;;;;2.13;1.92;;;;;;;;;;6286358;22;20008;-83
2023/04/10 13:05:47;;;;;;;2.20;1.90;;;19.40;88.40;;;;;;6276082;22;20330;-83
2023/04/10 13:08:13;;;;;;;3.58;2.10;;;19.20;87.90;;;;;;6276212;22;20415;-84
2023/04/10 13:10:41;;;;;;;2.10;1.83;;;;;;;;;;6276637;22;20075;-83
2023/04/10 13:13:07;;;;;;;3.17;1.60;;;19.80;79.80;;;;;;6276574;22;19995;-72
2023/04/10 13:15:33;;;;;;;3.13;1.58;;;19.50;55.70;;;;;;6275726;22;20008;-73
2023/04/10 13:17:59;;;;;;;2.53;1.58;;;19.40;88.10;;;;;;6276082;22;20019;-73
2023/04/10 13:20:26;;;;;;;2.47;1.70;;;19.50;88.30;;;;;;6275774;22;20430;-72